sensor_id;sensor_type;location;lat;lon;timestamp;pressure;altitude;pressure_sealevel;temperature;humidity
14242;BME280;7205;50.864;12.766;2022-07-12T00:02:19;98245.00;;;15.01;73.84
14242;BME280;7205;50.864;12.766;2022-07-12T00:04:46;98244.19;;;15.00;74.06
14242;BME280;7205;50.864;12.766;2022-07-12T00:07:13;98246.03;;;15.00;74.29
14242;BME280;7205;50.864;12.766;2022-07-12T00:09:41;98246.84;;;15.00;74.54
14242;BME280;7205;50.864;12.766;2022-07-12T00:12:09;98245.19;;;14.99;75.16
14242;BME280;7205;50.864;12.766;2022-07-12T00:14:36;98247.22;;;14.97;75.29
14242;BME280;7205;50.864;12.766;2022-07-12T00:17:03;98244.19;;;15.00;75.72
14242;BME280;7205;50.864;12.766;2022-07-12T00:19:30;98244.56;;;14.97;75.93
14242;BME280;7205;50.864;12.766;2022-07-12T00:21:58;98241.06;;;14.97;76.18
14242;BME280;7205;50.864;12.766;2022-07-12T00:24:25;98246.22;;;14.98;76.44
14242;BME280;7205;50.864;12.766;2022-07-12T00:26:53;98247.03;;;14.99;76.71
14242;BME280;7205;50.864;12.766;2022-07-12T00:29:21;98243.56;;;14.98;77.13
14242;BME280;7205;50.864;12.766;2022-07-12T00:31:48;98244.81;;;15.02;77.29
14242;BME280;7205;50.864;12.766;2022-07-12T00:34:15;98242.63;;;15.06;77.80
14242;BME280;7205;50.864;12.766;2022-07-12T00:36:44;98245.97;;;15.15;77.94
14242;BME280;7205;50.864;12.766;2022-07-12T00:39:10;98253.00;;;15.22;77.73
14242;BME280;7205;50.864;12.766;2022-07-12T00:41:37;98257.78;;;15.27;78.05
14242;BME280;7205;50.864;12.766;2022-07-12T00:44:06;98251.50;;;15.34;77.87
14242;BME280;7205;50.864;12.766;2022-07-12T00:46:33;98251.22;;;15.44;78.17
14242;BME280;7205;50.864;12.766;2022-07-12T00:49:00;98246.59;;;15.52;78.22
14242;BME280;7205;50.864;12.766;2022-07-12T00:51:27;98250.56;;;15.63;78.18
14242;BME280;7205;50.864;12.766;2022-07-12T00:53:56;98248.78;;;15.70;77.91
14242;BME280;7205;50.864;12.766;2022-07-12T00:56:24;98244.34;;;15.77;77.94
14242;BME280;7205;50.864;12.766;2022-07-12T00:58:50;98245.84;;;15.86;77.66
14242;BME280;7205;50.864;12.766;2022-07-12T01:01:19;98245.06;;;15.92;77.71
14242;BME280;7205;50.864;12.766;2022-07-12T01:03:49;98249.22;;;16.01;77.17
14242;BME280;7205;50.864;12.766;2022-07-12T01:06:17;98247.44;;;16.08;77.30
14242;BME280;7205;50.864;12.766;2022-07-12T01:08:46;98251.16;;;16.13;76.92
14242;BME280;7205;50.864;12.766;2022-07-12T01:11:14;98241.59;;;16.19;76.84
14242;BME280;7205;50.864;12.766;2022-07-12T01:13:44;98244.47;;;16.24;76.73
14242;BME280;7205;50.864;12.766;2022-07-12T01:16:12;98245.53;;;16.29;76.37
14242;BME280;7205;50.864;12.766;2022-07-12T01:18:41;98237.31;;;16.31;76.26
14242;BME280;7205;50.864;12.766;2022-07-12T01:21:16;98241.25;;;16.35;76.08
14242;BME280;7205;50.864;12.766;2022-07-12T01:23:49;98244.56;;;16.37;75.92
14242;BME280;7205;50.864;12.766;2022-07-12T01:26:17;98248.44;;;16.41;75.98
14242;BME280;7205;50.864;12.766;2022-07-12T01:28:44;98256.09;;;16.44;76.04
14242;BME280;7205;50.864;12.766;2022-07-12T01:31:10;98259.38;;;16.46;76.04
14242;BME280;7205;50.864;12.766;2022-07-12T01:33:38;98262.28;;;16.51;75.78
14242;BME280;7205;50.864;12.766;2022-07-12T01:36:05;98260.44;;;16.52;75.94
14242;BME280;7205;50.864;12.766;2022-07-12T01:38:32;98256.38;;;16.56;75.65
14242;BME280;7205;50.864;12.766;2022-07-12T01:41:00;98258.00;;;16.57;75.75
14242;BME280;7205;50.864;12.766;2022-07-12T01:43:27;98256.81;;;16.59;75.62
14242;BME280;7205;50.864;12.766;2022-07-12T01:45:54;98261.94;;;16.61;75.56
14242;BME280;7205;50.864;12.766;2022-07-12T01:48:21;98251.91;;;16.63;75.39
14242;BME280;7205;50.864;12.766;2022-07-12T01:50:48;98257.25;;;16.63;75.37
14242;BME280;7205;50.864;12.766;2022-07-12T01:53:16;98258.25;;;16.62;75.48
14242;BME280;7205;50.864;12.766;2022-07-12T01:55:43;98252.91;;;16.62;75.58
14242;BME280;7205;50.864;12.766;2022-07-12T01:58:13;98257.41;;;16.61;75.71
14242;BME280;7205;50.864;12.766;2022-07-12T02:00:40;98254.75;;;16.61;75.66
14242;BME280;7205;50.864;12.766;2022-07-12T02:03:07;98248.59;;;16.61;75.61
14242;BME280;7205;50.864;12.766;2022-07-12T02:05:35;98249.63;;;16.60;76.01
14242;BME280;7205;50.864;12.766;2022-07-12T02:08:01;98248.81;;;16.59;76.19
14242;BME280;7205;50.864;12.766;2022-07-12T02:10:29;98258.25;;;16.62;76.32
14242;BME280;7205;50.864;12.766;2022-07-12T02:12:56;98256.84;;;16.66;76.21
14242;BME280;7205;50.864;12.766;2022-07-12T02:15:24;98255.81;;;16.67;76.42
14242;BME280;7205;50.864;12.766;2022-07-12T02:17:51;98254.97;;;16.66;76.51
14242;BME280;7205;50.864;12.766;2022-07-12T02:20:18;98256.84;;;16.66;76.22
14242;BME280;7205;50.864;12.766;2022-07-12T02:22:45;98254.16;;;16.66;76.46
14242;BME280;7205;50.864;12.766;2022-07-12T02:25:12;98259.31;;;16.67;76.33
14242;BME280;7205;50.864;12.766;2022-07-12T02:27:39;98262.97;;;16.66;76.44
14242;BME280;7205;50.864;12.766;2022-07-12T02:30:07;98257.03;;;16.64;76.49
14242;BME280;7205;50.864;12.766;2022-07-12T02:32:36;98268.50;;;16.65;76.52
14242;BME280;7205;50.864;12.766;2022-07-12T02:35:04;98265.25;;;16.63;76.66
14242;BME280;7205;50.864;12.766;2022-07-12T02:37:31;98270.75;;;16.61;76.58
14242;BME280;7205;50.864;12.766;2022-07-12T02:39:58;98271.97;;;16.59;76.61
14242;BME280;7205;50.864;12.766;2022-07-12T02:42:38;98267.25;;;16.54;76.85
14242;BME280;7205;50.864;12.766;2022-07-12T02:45:06;98281.78;;;16.52;76.87
14242;BME280;7205;50.864;12.766;2022-07-12T02:47:37;98277.25;;;16.46;77.02
14242;BME280;7205;50.864;12.766;2022-07-12T02:50:05;98281.06;;;16.43;77.11
14242;BME280;7205;50.864;12.766;2022-07-12T02:52:33;98281.47;;;16.40;77.60
14242;BME280;7205;50.864;12.766;2022-07-12T02:55:00;98279.00;;;16.39;77.89
14242;BME280;7205;50.864;12.766;2022-07-12T02:57:27;98273.03;;;16.37;77.98
14242;BME280;7205;50.864;12.766;2022-07-12T02:59:54;98276.31;;;16.32;78.15
14242;BME280;7205;50.864;12.766;2022-07-12T03:02:20;98281.63;;;16.32;78.22
14242;BME280;7205;50.864;12.766;2022-07-12T03:04:49;98276.50;;;16.30;78.48
14242;BME280;7205;50.864;12.766;2022-07-12T03:07:16;98278.72;;;16.27;78.56
14242;BME280;7205;50.864;12.766;2022-07-12T03:09:42;98282.41;;;16.26;78.69
14242;BME280;7205;50.864;12.766;2022-07-12T03:12:10;98277.06;;;16.26;79.13
14242;BME280;7205;50.864;12.766;2022-07-12T03:14:38;98283.22;;;16.26;79.07
14242;BME280;7205;50.864;12.766;2022-07-12T03:17:04;98285.69;;;16.28;79.38
14242;BME280;7205;50.864;12.766;2022-07-12T03:19:31;98285.31;;;16.31;79.29
14242;BME280;7205;50.864;12.766;2022-07-12T03:21:59;98282.84;;;16.29;79.22
14242;BME280;7205;50.864;12.766;2022-07-12T03:24:26;98286.34;;;16.30;79.36
14242;BME280;7205;50.864;12.766;2022-07-12T03:26:53;98282.47;;;16.33;79.58
14242;BME280;7205;50.864;12.766;2022-07-12T03:29:20;98287.81;;;16.33;79.55
14242;BME280;7205;50.864;12.766;2022-07-12T03:31:47;98296.41;;;16.34;79.73
14242;BME280;7205;50.864;12.766;2022-07-12T03:34:14;98291.91;;;16.35;80.03
14242;BME280;7205;50.864;12.766;2022-07-12T03:36:41;98291.50;;;16.38;79.96
14242;BME280;7205;50.864;12.766;2022-07-12T03:39:09;98289.28;;;16.42;79.96
14242;BME280;7205;50.864;12.766;2022-07-12T03:41:36;98283.94;;;16.42;79.77
14242;BME280;7205;50.864;12.766;2022-07-12T03:44:03;98288.06;;;16.44;79.72
14242;BME280;7205;50.864;12.766;2022-07-12T03:46:31;98293.41;;;16.44;79.70
14242;BME280;7205;50.864;12.766;2022-07-12T03:48:58;98286.22;;;16.45;79.77
14242;BME280;7205;50.864;12.766;2022-07-12T03:51:25;98292.22;;;16.47;79.58
14242;BME280;7205;50.864;12.766;2022-07-12T03:53:52;98292.22;;;16.47;79.71
14242;BME280;7205;50.864;12.766;2022-07-12T03:56:20;98294.88;;;16.47;79.86
14242;BME280;7205;50.864;12.766;2022-07-12T03:59:02;98291.22;;;16.48;80.03
14242;BME280;7205;50.864;12.766;2022-07-12T04:01:29;98291.81;;;16.50;79.86
14242;BME280;7205;50.864;12.766;2022-07-12T04:03:56;98288.16;;;16.51;79.89
14242;BME280;7205;50.864;12.766;2022-07-12T04:06:23;98297.16;;;16.50;79.56
14242;BME280;7205;50.864;12.766;2022-07-12T04:08:50;98296.94;;;16.51;79.71
14242;BME280;7205;50.864;12.766;2022-07-12T04:11:21;98293.28;;;16.52;79.78
14242;BME280;7205;50.864;12.766;2022-07-12T04:13:48;98290.41;;;16.54;79.80
14242;BME280;7205;50.864;12.766;2022-07-12T04:16:14;98295.53;;;16.55;79.81
14242;BME280;7205;50.864;12.766;2022-07-12T04:18:41;98297.59;;;16.60;79.98
14242;BME280;7205;50.864;12.766;2022-07-12T04:21:08;98299.31;;;16.67;80.08
14242;BME280;7205;50.864;12.766;2022-07-12T04:23:35;98298.72;;;16.72;79.72
14242;BME280;7205;50.864;12.766;2022-07-12T04:26:02;98308.97;;;16.75;79.05
14242;BME280;7205;50.864;12.766;2022-07-12T04:28:30;98324.19;;;16.74;78.71
14242;BME280;7205;50.864;12.766;2022-07-12T04:30:57;98316.38;;;16.73;78.87
14242;BME280;7205;50.864;12.766;2022-07-12T04:33:24;98322.13;;;16.76;79.08
14242;BME280;7205;50.864;12.766;2022-07-12T04:35:51;98325.84;;;16.82;79.08
14242;BME280;7205;50.864;12.766;2022-07-12T04:38:18;98322.41;;;16.88;79.05
14242;BME280;7205;50.864;12.766;2022-07-12T04:40:45;98322.81;;;16.91;78.57
14242;BME280;7205;50.864;12.766;2022-07-12T04:43:12;98322.44;;;16.94;78.57
14242;BME280;7205;50.864;12.766;2022-07-12T04:45:40;98315.22;;;16.95;78.46
14242;BME280;7205;50.864;12.766;2022-07-12T04:48:09;98318.72;;;16.95;78.09
14242;BME280;7205;50.864;12.766;2022-07-12T04:50:36;98320.13;;;16.91;77.89
14242;BME280;7205;50.864;12.766;2022-07-12T04:53:03;98323.84;;;16.90;77.95
14242;BME280;7205;50.864;12.766;2022-07-12T04:55:30;98324.69;;;16.91;78.13
14242;BME280;7205;50.864;12.766;2022-07-12T04:57:57;98339.03;;;16.96;78.13
14242;BME280;7205;50.864;12.766;2022-07-12T05:00:24;98335.59;;;17.02;78.19
14242;BME280;7205;50.864;12.766;2022-07-12T05:02:52;98335.19;;;17.05;77.92
14242;BME280;7205;50.864;12.766;2022-07-12T05:05:19;98335.63;;;17.09;77.58
14242;BME280;7205;50.864;12.766;2022-07-12T05:07:46;98339.94;;;17.10;77.23
14242;BME280;7205;50.864;12.766;2022-07-12T05:10:13;98342.03;;;17.14;77.45
14242;BME280;7205;50.864;12.766;2022-07-12T05:12:40;98335.84;;;17.14;77.06
14242;BME280;7205;50.864;12.766;2022-07-12T05:15:07;98350.63;;;17.16;76.53
14242;BME280;7205;50.864;12.766;2022-07-12T05:17:34;98346.31;;;17.15;76.47
14242;BME280;7205;50.864;12.766;2022-07-12T05:20:03;98348.19;;;17.21;76.78
14242;BME280;7205;50.864;12.766;2022-07-12T05:22:30;98354.19;;;17.30;76.86
14242;BME280;7205;50.864;12.766;2022-07-12T05:24:57;98347.66;;;17.39;76.42
14242;BME280;7205;50.864;12.766;2022-07-12T05:27:24;98355.88;;;17.44;75.77
14242;BME280;7205;50.864;12.766;2022-07-12T05:29:51;98360.84;;;17.47;75.73
14242;BME280;7205;50.864;12.766;2022-07-12T05:32:17;98362.09;;;17.51;75.48
14242;BME280;7205;50.864;12.766;2022-07-12T05:34:44;98363.34;;;17.55;74.82
14242;BME280;7205;50.864;12.766;2022-07-12T05:37:13;98356.56;;;17.52;74.30
14242;BME280;7205;50.864;12.766;2022-07-12T05:39:39;98364.16;;;17.49;74.39
14242;BME280;7205;50.864;12.766;2022-07-12T05:42:06;98372.38;;;17.47;74.71
14242;BME280;7205;50.864;12.766;2022-07-12T05:44:33;98377.50;;;17.49;74.68
14242;BME280;7205;50.864;12.766;2022-07-12T05:47:00;98376.66;;;17.48;74.29
14242;BME280;7205;50.864;12.766;2022-07-12T05:49:27;98371.97;;;17.50;73.78
14242;BME280;7205;50.864;12.766;2022-07-12T05:51:54;98373.59;;;17.51;73.35
14242;BME280;7205;50.864;12.766;2022-07-12T05:54:40;98368.69;;;17.55;73.39
14242;BME280;7205;50.864;12.766;2022-07-12T05:57:07;98373.63;;;17.58;73.10
14242;BME280;7205;50.864;12.766;2022-07-12T05:59:34;98376.53;;;17.63;72.86
14242;BME280;7205;50.864;12.766;2022-07-12T06:02:01;98381.88;;;17.70;72.98
14242;BME280;7205;50.864;12.766;2022-07-12T06:04:28;98380.25;;;17.82;72.84
14242;BME280;7205;50.864;12.766;2022-07-12T06:06:55;98377.81;;;17.93;72.84
14242;BME280;7205;50.864;12.766;2022-07-12T06:09:22;98392.22;;;18.05;71.54
14242;BME280;7205;50.864;12.766;2022-07-12T06:11:51;98379.69;;;18.06;70.60
14242;BME280;7205;50.864;12.766;2022-07-12T06:14:18;98387.06;;;18.10;70.71
14242;BME280;7205;50.864;12.766;2022-07-12T06:16:45;98390.59;;;18.17;70.09
14242;BME280;7205;50.864;12.766;2022-07-12T06:19:13;98390.59;;;18.24;69.32
14242;BME280;7205;50.864;12.766;2022-07-12T06:21:39;98393.69;;;18.27;68.82
14242;BME280;7205;50.864;12.766;2022-07-12T06:24:06;98392.03;;;18.26;68.66
14242;BME280;7205;50.864;12.766;2022-07-12T06:26:33;98392.88;;;18.27;68.44
14242;BME280;7205;50.864;12.766;2022-07-12T06:29:02;98394.31;;;18.29;68.83
14242;BME280;7205;50.864;12.766;2022-07-12T06:31:45;98395.13;;;18.30;68.84
14242;BME280;7205;50.864;12.766;2022-07-12T06:34:24;98398.22;;;18.33;68.20
14242;BME280;7205;50.864;12.766;2022-07-12T06:37:23;98395.97;;;18.37;67.86
14242;BME280;7205;50.864;12.766;2022-07-12T06:39:59;98389.59;;;18.44;67.65
14242;BME280;7205;50.864;12.766;2022-07-12T06:42:36;98390.63;;;18.50;66.96
14242;BME280;7205;50.864;12.766;2022-07-12T06:45:18;98394.13;;;18.50;66.30
14242;BME280;7205;50.864;12.766;2022-07-12T06:47:45;98392.69;;;18.54;66.52
14242;BME280;7205;50.864;12.766;2022-07-12T06:50:19;98392.88;;;18.59;66.06
14242;BME280;7205;50.864;12.766;2022-07-12T06:53:03;98404.63;;;18.65;65.95
14242;BME280;7205;50.864;12.766;2022-07-12T06:55:44;98398.63;;;18.69;65.97
14242;BME280;7205;50.864;12.766;2022-07-12T06:58:39;98399.47;;;18.70;65.69
14242;BME280;7205;50.864;12.766;2022-07-12T07:02:10;98405.03;;;18.62;65.26
14242;BME280;7205;50.864;12.766;2022-07-12T07:04:38;98405.44;;;18.46;64.78
14242;BME280;7205;50.864;12.766;2022-07-12T07:07:26;98404.78;;;18.37;65.27
14242;BME280;7205;50.864;12.766;2022-07-12T07:09:55;98407.25;;;18.32;65.50
14242;BME280;7205;50.864;12.766;2022-07-12T07:12:24;98410.56;;;18.34;65.48
14242;BME280;7205;50.864;12.766;2022-07-12T07:15:12;98410.75;;;18.33;65.86
14242;BME280;7205;50.864;12.766;2022-07-12T07:17:59;98405.84;;;18.30;65.75
14242;BME280;7205;50.864;12.766;2022-07-12T07:20:34;98407.06;;;18.27;65.66
14242;BME280;7205;50.864;12.766;2022-07-12T07:23:06;98405.22;;;18.21;65.12
14242;BME280;7205;50.864;12.766;2022-07-12T07:25:35;98404.78;;;18.18;64.75
14242;BME280;7205;50.864;12.766;2022-07-12T07:28:11;98409.94;;;18.13;64.81
14242;BME280;7205;50.864;12.766;2022-07-12T07:30:48;98412.81;;;18.11;65.37
14242;BME280;7205;50.864;12.766;2022-07-12T07:33:25;98401.47;;;18.09;65.14
14242;BME280;7205;50.864;12.766;2022-07-12T07:36:06;98409.31;;;18.11;65.62
14242;BME280;7205;50.864;12.766;2022-07-12T07:38:34;98414.84;;;18.09;66.01
14242;BME280;7205;50.864;12.766;2022-07-12T07:41:03;98412.38;;;18.08;65.74
14242;BME280;7205;50.864;12.766;2022-07-12T07:43:30;98410.75;;;18.07;65.63
14242;BME280;7205;50.864;12.766;2022-07-12T07:45:57;98409.72;;;18.08;65.83
14242;BME280;7205;50.864;12.766;2022-07-12T07:48:27;98410.13;;;18.11;66.31
14242;BME280;7205;50.864;12.766;2022-07-12T07:55:03;98413.63;;;18.12;64.97
14242;BME280;7205;50.864;12.766;2022-07-12T07:57:35;98411.34;;;18.15;65.20
14242;BME280;7205;50.864;12.766;2022-07-12T08:00:48;98415.06;;;18.21;65.37
14242;BME280;7205;50.864;12.766;2022-07-12T08:07:39;98421.66;;;18.31;64.33
14242;BME280;7205;50.864;12.766;2022-07-12T08:10:21;98413.03;;;18.36;64.27
14242;BME280;7205;50.864;12.766;2022-07-12T08:30:10;98397.00;;;18.68;63.00
14242;BME280;7205;50.864;12.766;2022-07-12T08:33:03;98407.06;;;18.73;62.22
14242;BME280;7205;50.864;12.766;2022-07-12T08:35:47;98394.72;;;18.85;61.81
14242;BME280;7205;50.864;12.766;2022-07-12T08:38:36;98401.66;;;19.06;61.65
14242;BME280;7205;50.864;12.766;2022-07-12T09:01:44;98391.91;;;20.13;56.14
14242;BME280;7205;50.864;12.766;2022-07-12T10:38:32;98409.03;;;22.12;44.80
14242;BME280;7205;50.864;12.766;2022-07-12T10:56:21;98404.84;;;21.86;42.91
14242;BME280;7205;50.864;12.766;2022-07-12T10:59:04;98403.75;;;22.05;43.04
14242;BME280;7205;50.864;12.766;2022-07-12T11:01:39;98400.16;;;22.23;43.09
14242;BME280;7205;50.864;12.766;2022-07-12T11:04:37;98411.91;;;22.28;42.62
14242;BME280;7205;50.864;12.766;2022-07-12T11:07:52;98404.97;;;22.21;42.13
14242;BME280;7205;50.864;12.766;2022-07-12T11:14:06;98401.91;;;22.17;42.78
14242;BME280;7205;50.864;12.766;2022-07-12T11:20:31;98393.22;;;22.15;42.72
14242;BME280;7205;50.864;12.766;2022-07-12T11:35:00;98386.22;;;22.67;41.46
14242;BME280;7205;50.864;12.766;2022-07-12T11:37:53;98375.69;;;22.77;41.49
14242;BME280;7205;50.864;12.766;2022-07-12T11:41:38;98378.94;;;22.79;40.60
14242;BME280;7205;50.864;12.766;2022-07-12T11:58:27;98366.78;;;22.88;40.74
14242;BME280;7205;50.864;12.766;2022-07-12T12:09:15;98367.13;;;22.92;39.41
14242;BME280;7205;50.864;12.766;2022-07-12T12:33:39;98362.78;;;23.02;39.44
14242;BME280;7205;50.864;12.766;2022-07-12T12:36:13;98358.78;;;23.05;39.60
14242;BME280;7205;50.864;12.766;2022-07-12T12:38:41;98350.94;;;23.03;38.81
14242;BME280;7205;50.864;12.766;2022-07-12T12:41:09;98353.88;;;23.02;39.22
14242;BME280;7205;50.864;12.766;2022-07-12T12:43:37;98342.84;;;23.03;38.90
14242;BME280;7205;50.864;12.766;2022-07-12T12:46:04;98346.94;;;23.06;38.39
14242;BME280;7205;50.864;12.766;2022-07-12T12:48:32;98345.28;;;23.16;38.41
14242;BME280;7205;50.864;12.766;2022-07-12T12:51:07;98354.22;;;23.28;38.22
14242;BME280;7205;50.864;12.766;2022-07-12T12:53:34;98349.75;;;23.34;38.23
14242;BME280;7205;50.864;12.766;2022-07-12T12:56:05;98355.13;;;23.34;38.07
14242;BME280;7205;50.864;12.766;2022-07-12T12:58:33;98340.81;;;23.33;37.98
14242;BME280;7205;50.864;12.766;2022-07-12T13:01:00;98341.66;;;23.34;38.73
14242;BME280;7205;50.864;12.766;2022-07-12T13:03:27;98344.59;;;23.32;38.10
14242;BME280;7205;50.864;12.766;2022-07-12T13:05:54;98338.38;;;23.32;37.70
14242;BME280;7205;50.864;12.766;2022-07-12T13:08:23;98348.69;;;23.35;37.76
14242;BME280;7205;50.864;12.766;2022-07-12T13:10:50;98340.09;;;23.38;37.83
14242;BME280;7205;50.864;12.766;2022-07-12T13:13:38;98347.16;;;23.39;37.90
14242;BME280;7205;50.864;12.766;2022-07-12T13:16:05;98353.94;;;23.41;37.81
14242;BME280;7205;50.864;12.766;2022-07-12T13:18:32;98350.28;;;23.47;38.07
14242;BME280;7205;50.864;12.766;2022-07-12T13:20:59;98336.28;;;23.62;38.87
14242;BME280;7205;50.864;12.766;2022-07-12T13:23:28;98342.88;;;23.83;38.36
14242;BME280;7205;50.864;12.766;2022-07-12T13:25:57;98347.84;;;24.02;38.19
14242;BME280;7205;50.864;12.766;2022-07-12T13:28:24;98341.38;;;24.20;37.78
14242;BME280;7205;50.864;12.766;2022-07-12T13:30:51;98344.25;;;24.30;36.73
14242;BME280;7205;50.864;12.766;2022-07-12T13:33:21;98335.44;;;24.34;36.76
14242;BME280;7205;50.864;12.766;2022-07-12T13:35:48;98334.59;;;24.34;35.57
14242;BME280;7205;50.864;12.766;2022-07-12T13:38:15;98343.69;;;24.28;35.48
14242;BME280;7205;50.864;12.766;2022-07-12T13:40:43;98336.56;;;24.22;36.01
14242;BME280;7205;50.864;12.766;2022-07-12T13:43:10;98349.47;;;24.20;35.86
14242;BME280;7205;50.864;12.766;2022-07-12T13:45:36;98346.22;;;24.18;36.35
14242;BME280;7205;50.864;12.766;2022-07-12T13:48:04;98348.44;;;24.21;36.41
14242;BME280;7205;50.864;12.766;2022-07-12T13:50:31;98342.78;;;24.22;36.06
14242;BME280;7205;50.864;12.766;2022-07-12T13:52:59;98355.78;;;24.25;36.18
14242;BME280;7205;50.864;12.766;2022-07-12T13:55:26;98359.06;;;24.27;36.13
14242;BME280;7205;50.864;12.766;2022-07-12T13:57:55;98346.16;;;24.29;36.69
14242;BME280;7205;50.864;12.766;2022-07-12T14:00:23;98342.78;;;24.39;36.75
14242;BME280;7205;50.864;12.766;2022-07-12T14:02:50;98337.63;;;24.54;36.01
14242;BME280;7205;50.864;12.766;2022-07-12T14:05:17;98342.47;;;24.68;35.56
14242;BME280;7205;50.864;12.766;2022-07-12T14:07:45;98347.75;;;24.80;35.53
14242;BME280;7205;50.864;12.766;2022-07-12T14:10:13;98350.59;;;24.90;34.91
14242;BME280;7205;50.864;12.766;2022-07-12T14:12:40;98339.06;;;24.95;34.60
14242;BME280;7205;50.864;12.766;2022-07-12T14:15:10;98339.06;;;24.95;34.65
14242;BME280;7205;50.864;12.766;2022-07-12T14:18:02;98333.03;;;24.88;34.37
14242;BME280;7205;50.864;12.766;2022-07-12T14:20:31;98341.56;;;24.80;34.27
14242;BME280;7205;50.864;12.766;2022-07-12T14:22:59;98333.06;;;24.71;34.50
14242;BME280;7205;50.864;12.766;2022-07-12T14:25:26;98341.31;;;24.64;34.35
14242;BME280;7205;50.864;12.766;2022-07-12T14:27:53;98346.72;;;24.64;34.42
14242;BME280;7205;50.864;12.766;2022-07-12T14:30:23;98331.06;;;24.66;34.91
14242;BME280;7205;50.864;12.766;2022-07-12T14:32:50;98337.97;;;24.74;35.22
14242;BME280;7205;50.864;12.766;2022-07-12T14:35:17;98326.22;;;24.85;35.31
14242;BME280;7205;50.864;12.766;2022-07-12T14:37:44;98319.91;;;24.96;34.72
14242;BME280;7205;50.864;12.766;2022-07-12T14:40:11;98321.91;;;25.06;34.88
14242;BME280;7205;50.864;12.766;2022-07-12T14:42:38;98320.59;;;25.08;34.19
14242;BME280;7205;50.864;12.766;2022-07-12T14:45:06;98324.28;;;25.02;33.89
14242;BME280;7205;50.864;12.766;2022-07-12T14:47:35;98326.94;;;24.97;33.38
14242;BME280;7205;50.864;12.766;2022-07-12T14:50:02;98320.66;;;24.92;33.58
14242;BME280;7205;50.864;12.766;2022-07-12T14:52:31;98310.91;;;24.91;33.04
14242;BME280;7205;50.864;12.766;2022-07-12T14:54:57;98335.22;;;24.91;33.69
14242;BME280;7205;50.864;12.766;2022-07-12T14:57:25;98312.53;;;24.92;33.06
14242;BME280;7205;50.864;12.766;2022-07-12T14:59:53;98309.28;;;25.11;33.68
14242;BME280;7205;50.864;12.766;2022-07-12T15:02:20;98303.88;;;25.54;33.25
14242;BME280;7205;50.864;12.766;2022-07-12T15:04:49;98311.50;;;26.11;32.79
14242;BME280;7205;50.864;12.766;2022-07-12T15:07:16;98301.13;;;26.71;32.05
14242;BME280;7205;50.864;12.766;2022-07-12T15:09:43;98300.94;;;27.39;31.07
14242;BME280;7205;50.864;12.766;2022-07-12T15:12:11;98293.22;;;28.08;30.44
14242;BME280;7205;50.864;12.766;2022-07-12T15:14:38;98297.75;;;28.98;29.13
14242;BME280;7205;50.864;12.766;2022-07-12T15:17:05;98298.50;;;29.82;28.19
14242;BME280;7205;50.864;12.766;2022-07-12T15:19:32;98293.88;;;30.50;26.34
14242;BME280;7205;50.864;12.766;2022-07-12T15:22:00;98289.63;;;30.96;25.79
14242;BME280;7205;50.864;12.766;2022-07-12T15:24:27;98289.44;;;31.53;25.73
14242;BME280;7205;50.864;12.766;2022-07-12T15:26:55;98279.63;;;32.27;25.15
14242;BME280;7205;50.864;12.766;2022-07-12T15:29:22;98281.91;;;32.97;23.76
14242;BME280;7205;50.864;12.766;2022-07-12T15:31:49;98286.44;;;33.56;23.72
14242;BME280;7205;50.864;12.766;2022-07-12T15:34:16;98283.19;;;34.26;23.15
14242;BME280;7205;50.864;12.766;2022-07-12T15:36:45;98278.31;;;34.97;22.55
14242;BME280;7205;50.864;12.766;2022-07-12T15:39:13;98280.47;;;35.57;22.14
14242;BME280;7205;50.864;12.766;2022-07-12T15:41:40;98272.09;;;35.96;20.89
14242;BME280;7205;50.864;12.766;2022-07-12T15:44:07;98286.16;;;36.20;20.50
14242;BME280;7205;50.864;12.766;2022-07-12T15:46:34;98286.00;;;36.33;19.31
14242;BME280;7205;50.864;12.766;2022-07-12T15:49:01;98276.25;;;36.44;19.14
14242;BME280;7205;50.864;12.766;2022-07-12T15:51:28;98281.41;;;36.54;19.25
14242;BME280;7205;50.864;12.766;2022-07-12T15:54:14;98274.28;;;36.79;19.11
14242;BME280;7205;50.864;12.766;2022-07-12T15:56:41;98274.91;;;37.14;18.70
14242;BME280;7205;50.864;12.766;2022-07-12T15:59:08;98281.00;;;37.57;18.48
14242;BME280;7205;50.864;12.766;2022-07-12T16:01:34;98277.56;;;37.89;18.54
14242;BME280;7205;50.864;12.766;2022-07-12T16:04:01;98277.94;;;38.20;18.23
14242;BME280;7205;50.864;12.766;2022-07-12T16:06:28;98281.06;;;38.51;17.77
14242;BME280;7205;50.864;12.766;2022-07-12T16:08:55;98273.41;;;38.69;17.04
14242;BME280;7205;50.864;12.766;2022-07-12T16:11:23;98276.50;;;38.67;17.51
14242;BME280;7205;50.864;12.766;2022-07-12T16:13:50;98271.00;;;38.67;16.91
14242;BME280;7205;50.864;12.766;2022-07-12T16:16:17;98270.06;;;38.75;16.91
14242;BME280;7205;50.864;12.766;2022-07-12T16:18:44;98272.75;;;38.84;17.13
14242;BME280;7205;50.864;12.766;2022-07-12T16:21:11;98279.09;;;38.97;17.30
14242;BME280;7205;50.864;12.766;2022-07-12T16:23:38;98270.50;;;39.10;17.00
14242;BME280;7205;50.864;12.766;2022-07-12T16:26:05;98271.28;;;39.11;16.54
14242;BME280;7205;50.864;12.766;2022-07-12T16:28:33;98269.00;;;39.13;16.77
14242;BME280;7205;50.864;12.766;2022-07-12T16:31:00;98273.16;;;39.07;16.22
14242;BME280;7205;50.864;12.766;2022-07-12T16:33:27;98263.16;;;38.69;16.54
14242;BME280;7205;50.864;12.766;2022-07-12T16:35:55;98267.50;;;38.05;17.24
14242;BME280;7205;50.864;12.766;2022-07-12T16:38:22;98264.78;;;37.85;18.01
14242;BME280;7205;50.864;12.766;2022-07-12T16:40:48;98268.59;;;37.92;17.28
14242;BME280;7205;50.864;12.766;2022-07-12T16:43:15;98254.72;;;38.01;16.99
14242;BME280;7205;50.864;12.766;2022-07-12T16:45:44;98256.53;;;37.97;17.03
14242;BME280;7205;50.864;12.766;2022-07-12T16:48:10;98247.56;;;37.58;17.02
14242;BME280;7205;50.864;12.766;2022-07-12T16:50:37;98253.44;;;37.28;17.99
14242;BME280;7205;50.864;12.766;2022-07-12T16:53:06;98258.28;;;37.02;17.75
14242;BME280;7205;50.864;12.766;2022-07-12T16:55:33;98254.19;;;36.62;17.81